Time;durP1;ratioP1;P1;durP2;ratioP2;P2;SDS_P1;SDS_P2;PMS_P1;PMS_P2;Temp;Humidity;BMP_temperature;BMP_pressure;BME280_temperature;BME280_humidity;BME280_pressure;Samples;Min_cycle;Max_cycle;Signal;HPM_P1;HPM_P2
2022/05/03 00:00:09;;;;;;;16.95;10.75;;;9.40;98.90;;;;;;5074552;28;20043;-71
2022/05/03 00:02:35;;;;;;;16.92;10.57;;;;;;;;;;5074440;28;20381;-71
2022/05/03 00:05:10;;;;;;;18.17;11.13;;;;;;;;;;5058055;28;20059;-71
2022/05/03 00:07:43;;;;;;;18.10;9.68;;;;;;;;;;5057989;28;20452;-71
2022/05/03 00:10:13;;;;;;;20.70;11.18;;;;;;;;;;5074375;28;20044;-70
2022/05/03 00:12:44;;;;;;;21.33;11.00;;;9.20;99.90;;;;;;5074355;28;20043;-71
2022/05/03 00:15:12;;;;;;;17.20;10.38;;;9.30;99.90;;;;;;5074318;28;20349;-70
2022/05/03 00:17:41;;;;;;;18.95;11.70;;;9.10;99.60;;;;;;5074115;28;20036;-70
2022/05/03 00:20:07;;;;;;;17.52;10.20;;;;;;;;;;5074539;28;20105;-71
2022/05/03 00:22:35;;;;;;;21.58;11.85;;;9.00;99.90;;;;;;5057833;28;20045;-71
2022/05/03 00:25:01;;;;;;;20.95;11.85;;;;;;;;;;5057737;28;20450;-71
2022/05/03 00:27:28;;;;;;;20.90;11.25;;;;;;;;;;5074367;28;20052;-71
2022/05/03 00:29:55;;;;;;;22.08;11.18;;;;;;;;;;5074025;28;20052;-70
2022/05/03 00:32:26;;;;;;;18.25;11.50;;;8.70;99.90;;;;;;5073878;28;20048;-70
2022/05/03 00:34:53;;;;;;;19.23;11.15;;;8.90;99.90;;;;;;5057139;28;20500;-70
2022/05/03 00:37:20;;;;;;;20.33;11.82;;;;;;;;;;5073853;28;20041;-70
2022/05/03 00:39:46;;;;;;;22.15;13.13;;;;;;;;;;5073863;28;20569;-70
2022/05/03 00:42:18;;;;;;;24.13;12.88;;;9.10;99.90;;;;;;5073727;28;20048;-70
2022/05/03 00:44:56;;;;;;;27.73;13.70;;;;;;;;;;5057360;28;20433;-70
2022/05/03 00:48:03;;;;;;;23.98;13.07;;;8.70;99.90;;;;;;5056971;28;20099;-70
2022/05/03 00:50:30;;;;;;;25.17;13.43;;;;;;;;;;5053638;28;20077;-73
2022/05/03 00:53:19;;;;;;;23.58;13.13;;;8.70;99.90;;;;;;5073478;28;20078;-74
2022/05/03 00:56:08;;;;;;;23.55;13.35;;;8.90;99.90;;;;;;5073462;28;20044;-73
2022/05/03 00:59:32;;;;;;;22.40;12.55;;;8.80;99.90;;;;;;5107099;28;20056;-74
2022/05/03 01:02:06;;;;;;;26.50;12.77;;;;;;;;;;5016438;28;20488;-73
2022/05/03 01:04:44;;;;;;;19.92;12.18;;;;;;;;;;5073300;28;20105;-74
2022/05/03 01:07:23;;;;;;;22.02;12.80;;;;;;;;;;5073495;28;20032;-75
2022/05/03 01:10:06;;;;;;;20.75;12.95;;;8.60;99.90;;;;;;5073494;28;20481;-75
2022/05/03 01:12:48;;;;;;;21.08;13.45;;;;;;;;;;5072519;28;20569;-75
2022/05/03 01:15:19;;;;;;;24.17;13.52;;;;;;;;;;5073022;28;20550;-74
2022/05/03 01:17:48;;;;;;;25.05;14.27;;;;;;;;;;5073229;28;20037;-74
2022/05/03 01:20:21;;;;;;;23.05;13.75;;;;;;;;;;5073047;28;20051;-74
2022/05/03 01:22:47;;;;;;;;;;;;;;;;;;5073363;28;20427;-74
2022/05/03 01:25:36;;;;;;;21.67;13.35;;;8.80;99.90;;;;;;5106796;28;19967;-73
2022/05/03 01:28:21;;;;;;;26.77;14.63;;;;;;;;;;5072758;28;20051;-74
2022/05/03 01:30:49;;;;;;;25.35;14.40;;;;;;;;;;5056167;28;20048;-74
2022/05/03 01:33:19;;;;;;;23.90;13.48;;;;;;;;;;5073026;28;20051;-74
2022/05/03 01:35:46;;;;;;;27.05;14.02;;;;;;;;;;5072641;28;20098;-74
2022/05/03 01:38:21;;;;;;;22.98;13.13;;;;;;;;;;5056121;28;20109;-74
2022/05/03 01:41:06;;;;;;;28.73;14.57;;;8.50;99.90;;;;;;5073042;28;20076;-73
2022/05/03 01:44:05;;;;;;;23.35;15.40;;;8.30;99.90;;;;;;5055913;28;20124;-73
2022/05/03 01:46:35;;;;;;;29.30;15.45;;;;;;;;;;5072367;28;20115;-74
2022/05/03 01:52:31;;;;;;;26.45;15.45;;;8.60;99.90;;;;;;5073561;28;20067;-73
2022/05/03 01:55:12;;;;;;;31.30;17.33;;;;;;;;;;5072209;28;20504;-75
2022/05/03 01:57:51;;;;;;;34.13;18.67;;;;;;;;;;5072092;28;20052;-75
2022/05/03 02:00:17;;;;;;;35.38;17.88;;;;;;;;;;5072216;28;20048;-74
2022/05/03 02:02:43;;;;;;;37.78;21.25;;;;;;;;;;5072232;28;20036;-74
2022/05/03 02:05:14;;;;;;;38.42;19.15;;;;;;;;;;5072124;28;20040;-73
2022/05/03 02:08:06;;;;;;;33.58;18.63;;;;;;;;;;5072472;28;20040;-73
2022/05/03 02:11:01;;;;;;;42.83;22.65;;;9.00;99.90;;;;;;5069326;28;20061;-74
2022/05/03 02:16:31;;;;;;;41.63;21.83;;;9.20;99.90;;;;;;5071989;28;20048;-74
2022/05/03 02:19:07;;;;;;;40.30;22.88;;;;;;;;;;5055597;28;20130;-74
2022/05/03 02:21:42;;;;;;;38.38;21.00;;;9.20;99.90;;;;;;5072358;28;20381;-74
2022/05/03 02:24:20;;;;;;;37.35;20.95;;;;;;;;;;5105392;28;20037;-73
2022/05/03 02:26:57;;;;;;;41.58;22.45;;;;;;;;;;5073092;28;20476;-74
2022/05/03 02:29:31;;;;;;;41.75;24.00;;;9.20;99.90;;;;;;5072237;28;20040;-74
2022/05/03 02:32:05;;;;;;;48.58;25.25;;;;;;;;;;5072076;28;20396;-74
2022/05/03 02:34:33;;;;;;;49.03;25.38;;;9.30;99.90;;;;;;5054963;28;20128;-74
2022/05/03 02:37:23;;;;;;;44.08;23.88;;;9.30;99.90;;;;;;5072134;28;20036;-74
2022/05/03 02:40:00;;;;;;;56.63;26.67;;;9.40;99.90;;;;;;5043298;28;20059;-73
2022/05/03 02:42:27;;;;;;;49.28;26.83;;;;;;;;;;5071803;28;20045;-74
2022/05/03 02:44:55;;;;;;;54.28;27.63;;;9.60;99.90;;;;;;5072053;28;20392;-74
2022/05/03 02:47:27;;;;;;;47.85;26.60;;;;;;;;;;5055122;28;20048;-74
2022/05/03 02:50:04;;;;;;;53.42;27.23;;;;;;;;;;5105464;28;20052;-74
2022/05/03 02:52:33;;;;;;;54.65;26.85;;;;;;;;;;5055385;28;20102;-74
2022/05/03 02:55:15;;;;;;;54.92;27.17;;;;;;;;;;5071913;28;20040;-74
2022/05/03 02:58:10;;;;;;;52.60;26.50;;;9.30;99.90;;;;;;5071700;28;20049;-74
2022/05/03 03:03:57;;;;;;;52.13;26.73;;;;;;;;;;5071528;28;20484;-74
2022/05/03 03:06:24;;;;;;;60.67;31.48;;;9.50;99.90;;;;;;5071511;28;20043;-74
2022/05/03 03:08:54;;;;;;;57.00;29.98;;;;;;;;;;5071523;28;20485;-74
2022/05/03 03:11:32;;;;;;;53.78;27.58;;;9.50;99.90;;;;;;5071642;28;20045;-74
2022/05/03 03:14:08;;;;;;;63.53;31.45;;;;;;;;;;5054639;28;20070;-74
2022/05/03 03:16:35;;;;;;;62.85;30.00;;;;;;;;;;5054668;28;20070;-74
2022/05/03 03:19:28;;;;;;;63.58;31.40;;;;;;;;;;5038276;28;20072;-74
2022/05/03 03:21:55;;;;;;;58.78;30.25;;;;;;;;;;5049061;28;20420;-74
2022/05/03 03:24:22;;;;;;;69.95;31.60;;;;;;;;;;5071384;28;20047;-74
2022/05/03 03:26:48;;;;;;;71.85;34.92;;;;;;;;;;5071397;28;20040;-74
2022/05/03 03:29:14;;;;;;;71.40;32.92;;;;;;;;;;5054582;28;20510;-74
2022/05/03 03:31:42;;;;;;;66.55;31.67;;;9.70;99.90;;;;;;5071530;28;20052;-74
2022/05/03 03:34:11;;;;;;;69.70;32.70;;;9.80;99.90;;;;;;5072542;28;20041;-74
2022/05/03 03:36:38;;;;;;;62.03;30.08;;;;;;;;;;5056360;28;20037;-73
2022/05/03 03:39:04;;;;;;;67.05;34.40;;;;;;;;;;5041677;28;20082;-74
2022/05/03 03:41:30;;;;;;;85.10;35.40;;;;;;;;;;5074872;28;20503;-74
2022/05/03 03:43:56;;;;;;;76.57;35.00;;;;;;;;;;5058290;28;20033;-74
2022/05/03 03:46:22;;;;;;;76.25;33.17;;;;;;;;;;5058293;28;20505;-73
2022/05/03 03:48:48;;;;;;;75.28;34.25;;;;;;;;;;5058199;28;20067;-73
2022/05/03 03:51:14;;;;;;;80.50;37.45;;;;;;;;;;5108622;28;20519;-74
2022/05/03 03:53:41;;;;;;;78.95;35.75;;;9.90;99.90;;;;;;5074805;28;20049;-74
2022/05/03 03:56:07;;;;;;;61.20;29.23;;;;;;;;;;5074603;28;20480;-74
2022/05/03 03:58:35;;;;;;;73.88;35.05;;;10.10;99.90;;;;;;5074512;28;20061;-74
2022/05/03 04:01:01;;;;;;;76.07;35.55;;;;;;;;;;5074603;28;20037;-74
2022/05/03 04:03:27;;;;;;;83.22;35.90;;;;;;;;;;5074418;28;20041;-74
2022/05/03 04:05:53;;;;;;;84.55;37.40;;;;;;;;;;5057674;28;20070;-74
2022/05/03 04:08:20;;;;;;;87.15;37.10;;;;;;;;;;5108137;28;20048;-74
2022/05/03 04:10:48;;;;;;;85.30;37.80;;;;;;;;;;5074370;28;20037;-75
2022/05/03 04:13:14;;;;;;;92.70;38.05;;;;;;;;;;5057960;28;20120;-74
2022/05/03 04:15:40;;;;;;;90.07;38.33;;;;;;;;;;5074086;28;20097;-74
2022/05/03 04:18:09;;;;;;;93.13;37.00;;;;;;;;;;5074284;28;20079;-74
2022/05/03 04:20:36;;;;;;;89.40;38.15;;;;;;;;;;5057453;28;20538;-74
2022/05/03 04:23:02;;;;;;;89.72;39.10;;;;;;;;;;5074323;28;20036;-74
2022/05/03 04:25:28;;;;;;;94.45;39.60;;;;;;;;;;5074140;28;20047;-73
2022/05/03 04:27:54;;;;;;;84.15;37.47;;;;;;;;;;5074061;28;20052;-74
2022/05/03 04:30:20;;;;;;;90.05;38.30;;;;;;;;;;5074023;28;20048;-73
2022/05/03 04:32:46;;;;;;;84.63;36.40;;;;;;;;;;5074428;28;20365;-74
2022/05/03 04:35:13;;;;;;;83.22;38.20;;;;;;;;;;5073878;28;20041;-74
2022/05/03 04:37:39;;;;;;;82.68;36.05;;;;;;;;;;5057094;28;20119;-74
2022/05/03 04:40:05;;;;;;;86.32;38.83;;;9.70;99.90;;;;;;5073839;28;20045;-74
2022/05/03 04:42:31;;;;;;;81.28;36.13;;;;;;;;;;5057156;28;20484;-74
2022/05/03 04:44:57;;;;;;;84.53;36.75;;;;;;;;;;5073727;28;20557;-74
2022/05/03 04:47:25;;;;;;;85.85;37.90;;;;;;;;;;5073000;28;20063;-74
2022/05/03 04:49:51;;;;;;;96.35;38.53;;;;;;;;;;5073653;28;20076;-74
2022/05/03 04:52:17;;;;;;;82.60;35.85;;;;;;;;;;5056882;28;20047;-74
2022/05/03 04:54:44;;;;;;;78.93;35.28;;;;;;;;;;5073253;28;20048;-74
2022/05/03 04:57:10;;;;;;;75.82;34.60;;;;;;;;;;5073350;28;20063;-73
2022/05/03 04:59:37;;;;;;;80.18;34.10;;;10.10;99.90;;;;;;5073515;28;20502;-74
2022/05/03 05:02:03;;;;;;;79.10;34.97;;;11.10;99.90;;;;;;5073654;28;20055;-74
2022/05/03 05:04:29;;;;;;;76.35;35.95;;;10.20;99.90;;;;;;5073312;28;20400;-74
2022/05/03 05:06:55;;;;;;;68.97;33.45;;;8.90;99.90;;;;;;5056890;28;20084;-73
2022/05/03 05:09:21;;;;;;;79.72;34.75;;;;;;;;;;5073289;28;20411;-74
2022/05/03 05:11:48;;;;;;;73.90;32.60;;;;;;;;;;5073180;28;20049;-74
2022/05/03 05:14:14;;;;;;;80.80;35.63;;;;;;;;;;5073128;28;20056;-73
2022/05/03 05:16:40;;;;;;;82.00;32.90;;;;;;;;;;5073001;28;20043;-73
2022/05/03 05:19:06;;;;;;;72.90;32.53;;;;;;;;;;5056411;28;20119;-74
2022/05/03 05:21:32;;;;;;;70.65;29.75;;;;;;;;;;5072863;28;20044;-74
2022/05/03 05:23:59;;;;;;;72.75;30.83;;;;;;;;;;5072903;28;20511;-74
2022/05/03 05:26:25;;;;;;;67.18;29.63;;;;;;;;;;5072828;28;20076;-74
2022/05/03 05:28:53;;;;;;;71.90;30.05;;;;;;;;;;5072802;28;20040;-73
2022/05/03 05:31:19;;;;;;;68.95;27.77;;;;;;;;;;5072760;28;20048;-73
2022/05/03 05:33:45;;;;;;;63.38;27.00;;;;;;;;;;5056080;28;20101;-74
2022/05/03 05:36:11;;;;;;;74.50;29.33;;;;;;;;;;5055998;28;20056;-73
2022/05/03 05:38:37;;;;;;;56.33;25.65;;;;;;;;;;5072714;28;20040;-74
2022/05/03 05:41:14;;;;;;;61.00;26.40;;;10.10;99.90;;;;;;5106543;28;20519;-73
2022/05/03 05:43:40;;;;;;;60.67;23.15;;;;;;;;;;5055964;28;20043;-74
2022/05/03 05:46:07;;;;;;;47.63;21.35;;;;;;;;;;5056029;28;20036;-74
2022/05/03 05:48:33;;;;;;;48.45;20.48;;;;;;;;;;5072874;28;20048;-74
2022/05/03 05:51:00;;;;;;;45.10;19.30;;;;;;;;;;5072708;28;20045;-73
2022/05/03 05:53:31;;;;;;;40.45;15.00;;;;;;;;;;5106729;28;20040;-74
2022/05/03 05:55:58;;;;;;;34.35;11.90;;;;;;;;;;5072594;28;20097;-74
2022/05/03 05:58:24;;;;;;;25.58;8.95;;;;;;;;;;5106000;28;20189;-73
2022/05/03 06:00:50;;;;;;;31.40;8.93;;;;;;;;;;5072369;28;20541;-74
2022/05/03 06:03:16;;;;;;;29.98;7.78;;;;;;;;;;5072860;28;20361;-73
2022/05/03 06:05:43;;;;;;;35.83;8.20;;;;;;;;;;5056132;28;20044;-74
2022/05/03 06:08:09;;;;;;;29.27;9.40;;;;;;;;;;5072967;28;20119;-74
2022/05/03 06:10:36;;;;;;;27.85;8.27;;;;;;;;;;5073078;28;20488;-74
2022/05/03 06:13:02;;;;;;;30.35;7.72;;;;;;;;;;5072976;28;20068;-74
2022/05/03 06:15:29;;;;;;;33.60;9.82;;;;;;;;;;5072424;28;20048;-74
2022/05/03 06:17:55;;;;;;;26.42;7.57;;;;;;;;;;5072280;28;20090;-74
2022/05/03 06:20:21;;;;;;;35.25;7.85;;;;;;;;;;5072267;28;20090;-74
2022/05/03 06:22:47;;;;;;;33.63;7.97;;;;;;;;;;5072355;28;20041;-74
2022/05/03 06:25:13;;;;;;;26.33;7.63;;;;;;;;;;5072088;28;20139;-74
2022/05/03 06:27:39;;;;;;;22.30;8.02;;;;;;;;;;5072422;28;20138;-74
2022/05/03 06:30:06;;;;;;;24.35;7.85;;;8.70;99.90;;;;;;5072360;28;20044;-74
2022/05/03 06:32:33;;;;;;;24.77;7.55;;;;;;;;;;5072143;28;20214;-75
2022/05/03 06:34:59;;;;;;;35.33;7.22;;;;;;;;;;5072131;28;20044;-74
2022/05/03 06:37:25;;;;;;;29.02;7.15;;;;;;;;;;5072596;28;20044;-74
2022/05/03 06:39:51;;;;;;;34.60;8.27;;;;;;;;;;5072350;28;20041;-75
2022/05/03 06:42:18;;;;;;;32.22;7.85;;;;;;;;;;5055387;28;20048;-75
2022/05/03 06:44:44;;;;;;;35.22;7.60;;;;;;;;;;5055686;28;20174;-74
2022/05/03 06:47:11;;;;;;;23.85;7.43;;;;;;;;;;5072089;28;20048;-74
2022/05/03 06:49:37;;;;;;;25.58;8.35;;;;;;;;;;5072221;28;20040;-74
2022/05/03 06:52:03;;;;;;;34.28;7.43;;;;;;;;;;5071837;28;20497;-75
2022/05/03 06:54:29;;;;;;;29.48;7.65;;;;;;;;;;5071925;28;20058;-74
2022/05/03 06:56:55;;;;;;;35.42;7.28;;;;;;;;;;5072004;28;20100;-74
2022/05/03 06:59:21;;;;;;;31.02;7.82;;;;;;;;;;5072961;28;20041;-75
2022/05/03 07:01:47;;;;;;;27.63;6.20;;;;;;;;;;5072995;28;20090;-74
2022/05/03 07:04:13;;;;;;;38.13;7.30;;;;;;;;;;5055883;28;20044;-75
2022/05/03 07:06:40;;;;;;;29.23;6.22;;;;;;;;;;5072297;28;20045;-75
2022/05/03 07:09:06;;;;;;;30.65;5.68;;;;;;;;;;5039288;28;20051;-74
2022/05/03 07:11:32;;;;;;;25.60;5.45;;;;;;;;;;5073851;28;20032;-74
2022/05/03 07:13:58;;;;;;;21.63;4.85;;;;;;;;;;5075735;28;20101;-75
2022/05/03 07:16:24;;;;;;;39.33;7.10;;;;;;;;;;5075422;28;20045;-74
2022/05/03 07:24:19;;;;;;;24.00;5.47;;;;;;;;;;5075364;28;20473;-75
2022/05/03 07:26:45;;;;;;;21.80;4.95;;;10.00;99.90;;;;;;5075334;28;20044;-74
2022/05/03 07:29:12;;;;;;;16.15;4.97;;;;;;;;;;5075741;28;20040;-74
2022/05/03 07:31:41;;;;;;;35.83;6.97;;;;;;;;;;5075968;28;20044;-75
2022/05/03 07:34:08;;;;;;;19.77;4.65;;;9.70;99.90;;;;;;5059679;28;20048;-74
2022/05/03 07:36:34;;;;;;;25.75;5.25;;;;;;;;;;5058859;28;20037;-74
2022/05/03 07:39:01;;;;;;;32.13;6.20;;;;;;;;;;5059186;28;20122;-74
2022/05/03 07:41:27;;;;;;;29.33;4.95;;;;;;;;;;5075962;28;20032;-75
2022/05/03 07:43:53;;;;;;;21.45;4.93;;;;;;;;;;5060168;28;20067;-75
2022/05/03 07:46:19;;;;;;;31.70;4.60;;;;;;;;;;5075431;28;20051;-74
2022/05/03 07:48:45;;;;;;;35.95;4.78;;;;;;;;;;5075132;28;20506;-75
2022/05/03 07:51:12;;;;;;;25.20;4.53;;;9.70;99.90;;;;;;5075635;28;20043;-74
2022/05/03 07:53:39;;;;;;;33.47;6.80;;;;;;;;;;5059363;28;20050;-74
2022/05/03 07:56:05;;;;;;;26.75;4.38;;;9.30;99.90;;;;;;5075548;28;20094;-74
2022/05/03 07:58:31;;;;;;;29.17;5.18;;;;;;;;;;5075138;28;20450;-74
2022/05/03 08:00:57;;;;;;;24.02;5.10;;;;;;;;;;5075400;28;20048;-74
2022/05/03 08:03:23;;;;;;;23.00;4.55;;;;;;;;;;5074763;28;20044;-74
2022/05/03 08:05:50;;;;;;;28.75;5.20;;;;;;;;;;5074774;28;20044;-74
2022/05/03 08:08:16;;;;;;;26.75;5.00;;;;;;;;;;5074567;28;20047;-74
2022/05/03 08:10:45;;;;;;;25.35;4.90;;;;;;;;;;5074699;28;20044;-74
2022/05/03 08:13:11;;;;;;;22.33;4.32;;;;;;;;;;5074651;28;20047;-74
2022/05/03 08:15:38;;;;;;;32.58;4.75;;;;;;;;;;5074490;28;20374;-74
2022/05/03 08:18:05;;;;;;;39.35;4.80;;;;;;;;;;5057758;28;20047;-74
2022/05/03 08:20:31;;;;;;;23.85;4.60;;;;;;;;;;5057648;28;20476;-74
2022/05/03 08:22:57;;;;;;;22.33;4.90;;;;;;;;;;5074383;28;20047;-75
2022/05/03 08:25:23;;;;;;;22.90;4.68;;;;;;;;;;5108112;28;20052;-74
2022/05/03 08:27:49;;;;;;;23.63;4.85;;;;;;;;;;5074425;28;20045;-74
2022/05/03 08:30:15;;;;;;;23.95;4.57;;;;;;;;;;5074083;28;20124;-74
2022/05/03 08:32:41;;;;;;;26.65;4.32;;;;;;;;;;5074148;28;20048;-74
2022/05/03 08:35:07;;;;;;;21.33;4.00;;;;;;;;;;5074128;28;20094;-74
2022/05/03 08:43:04;;;;;;;21.25;3.80;;;;;;;;;;5073958;28;20127;-74
2022/05/03 08:45:30;;;;;;;18.58;4.43;;;;;;;;;;5073946;28;20114;-73
2022/05/03 08:47:57;;;;;;;24.92;3.80;;;;;;;;;;5074031;28;20079;-74
2022/05/03 08:50:24;;;;;;;25.17;4.50;;;;;;;;;;5074656;28;20066;-74
2022/05/03 08:52:55;;;;;;;20.15;3.83;;;10.80;99.90;;;;;;5074517;28;20392;-73
2022/05/03 08:55:22;;;;;;;23.63;3.77;;;;;;;;;;5073779;28;20048;-74
2022/05/03 08:57:49;;;;;;;17.77;3.75;;;;;;;;;;5073329;28;20053;-74
2022/05/03 09:00:16;;;;;;;24.80;4.85;;;;;;;;;;5073614;28;20047;-74
2022/05/03 09:02:43;;;;;;;18.85;4.18;;;10.80;99.90;;;;;;5090636;28;20037;-74
2022/05/03 09:05:10;;;;;;;24.83;4.22;;;;;;;;;;5073602;28;20542;-74
2022/05/03 09:07:37;;;;;;;17.77;3.70;;;;;;;;;;5056923;28;20131;-74
2022/05/03 09:10:22;;;;;;;20.17;4.30;;;;;;;;;;5073612;28;20110;-73
2022/05/03 09:12:49;;;;;;;23.48;3.72;;;;;;;;;;5073618;28;20388;-74
2022/05/03 09:15:16;;;;;;;12.98;3.50;;;;;;;;;;5073370;28;20565;-74
2022/05/03 09:17:42;;;;;;;22.30;4.25;;;;;;;;;;5056820;28;20536;-73
2022/05/03 09:26:11;;;;;;;26.33;3.80;;;;;;;;;;5073406;28;20595;-73
2022/05/03 09:28:43;;;;;;;17.98;4.00;;;;;;;;;;5074466;28;20044;-74
2022/05/03 09:31:09;;;;;;;;;;;11.30;99.00;;;;;;5074075;28;20047;-74
2022/05/03 09:33:37;;;;;;;17.63;3.55;;;11.10;99.00;;;;;;5106862;28;19917;-74
2022/05/03 09:36:10;;;;;;;19.27;3.53;;;11.10;98.10;;;;;;5073282;28;20068;-74
2022/05/03 09:38:54;;;;;;;18.42;3.63;;;;;;;;;;5073280;28;20077;-74
2022/05/03 09:41:21;;;;;;;19.90;4.03;;;;;;;;;;5073296;28;20039;-74
2022/05/03 09:44:07;;;;;;;12.88;3.60;;;11.40;98.70;;;;;;5057418;28;20068;-74
2022/05/03 09:46:52;;;;;;;17.63;3.72;;;;;;;;;;5073153;28;20040;-75
2022/05/03 09:49:35;;;;;;;13.18;4.00;;;;;;;;;;5072831;28;20048;-74
2022/05/03 09:52:02;;;;;;;15.13;3.55;;;11.10;99.90;;;;;;5072661;28;20047;-74
2022/05/03 09:54:31;;;;;;;11.05;3.58;;;;;;;;;;5072643;28;20052;-74
2022/05/03 09:56:58;;;;;;;18.77;3.78;;;11.30;98.40;;;;;;5055741;28;20109;-74
2022/05/03 09:59:26;;;;;;;19.05;3.85;;;;;;;;;;5072661;28;20125;-71
2022/05/03 10:01:52;;;;;;;17.83;3.60;;;11.50;97.10;;;;;;5073048;28;20041;-71
2022/05/03 10:04:18;;;;;;;29.98;3.95;;;;;;;;;;5055868;28;20055;-71
2022/05/03 10:06:44;;;;;;;19.40;4.00;;;;;;;;;;5072409;28;20043;-70
2022/05/03 10:09:11;;;;;;;19.45;4.85;;;;;;;;;;5072646;28;20086;-71
2022/05/03 10:11:39;;;;;;;12.55;3.25;;;;;;;;;;5056475;28;20094;-70
2022/05/03 10:14:05;;;;;;;25.23;3.65;;;;;;;;;;5072731;28;20111;-72
2022/05/03 10:22:04;;;;;;;16.65;3.28;;;;;;;;;;5073019;28;20555;-71
2022/05/03 10:24:31;;;;;;;16.60;3.50;;;;;;;;;;5056091;28;20051;-72
2022/05/03 10:27:02;;;;;;;16.42;3.20;;;11.60;95.90;;;;;;5073183;28;20045;-71
2022/05/03 10:29:32;;;;;;;8.38;2.95;;;11.50;95.80;;;;;;5072688;28;20493;-71
2022/05/03 10:32:05;;;;;;;12.82;3.20;;;;;;;;;;5072408;28;20052;-71
2022/05/03 10:34:40;;;;;;;17.13;3.30;;;;;;;;;;5072793;28;20099;-71
2022/05/03 10:37:14;;;;;;;12.52;3.55;;;11.70;95.30;;;;;;5072691;28;20125;-71
2022/05/03 10:39:54;;;;;;;12.55;3.17;;;;;;;;;;5072720;28;20040;-71
2022/05/03 10:42:24;;;;;;;10.50;2.83;;;12.10;95.40;;;;;;5072059;28;20477;-70
2022/05/03 10:44:52;;;;;;;8.23;2.97;;;11.90;94.50;;;;;;5055557;28;20090;-70
2022/05/03 10:47:20;;;;;;;16.50;3.25;;;11.90;95.10;;;;;;5075236;28;20048;-70
2022/05/03 10:50:17;;;;;;;12.73;2.80;;;11.70;94.10;;;;;;5076214;28;20102;-70
2022/05/03 10:53:06;;;;;;;14.15;3.45;;;11.70;94.50;;;;;;5076374;28;20389;-70
2022/05/03 10:55:56;;;;;;;12.00;3.72;;;11.90;95.00;;;;;;5075948;28;20400;-71
2022/05/03 10:58:25;;;;;;;16.75;2.80;;;11.70;94.30;;;;;;5075701;28;20151;-70
2022/05/03 11:01:04;;;;;;;8.73;2.72;;;;;;;;;;5076304;28;20044;-71
2022/05/03 11:03:34;;;;;;;12.07;2.78;;;;;;;;;;5076233;28;20569;-71
2022/05/03 11:06:18;;;;;;;15.50;3.40;;;11.90;94.40;;;;;;5076434;28;20050;-70
2022/05/03 11:14:24;;;;;;;17.67;3.35;;;12.00;94.50;;;;;;5076005;28;20048;-70
2022/05/03 11:17:05;;;;;;;17.50;2.47;;;11.80;94.90;;;;;;5075734;28;20036;-74
2022/05/03 11:19:49;;;;;;;16.92;3.10;;;12.10;94.30;;;;;;5075896;28;20151;-74
2022/05/03 11:22:18;;;;;;;11.68;2.72;;;12.10;94.50;;;;;;5058952;28;20040;-74
2022/05/03 11:24:51;;;;;;;13.07;2.45;;;12.20;94.50;;;;;;5075976;28;20491;-73
2022/05/03 11:27:17;;;;;;;10.95;2.70;;;12.80;98.10;;;;;;5075794;28;20044;-74
2022/05/03 11:29:46;;;;;;;14.02;2.63;;;;;;;;;;5075818;28;20044;-74
2022/05/03 11:32:12;;;;;;;10.38;2.72;;;;;;;;;;5076028;28;20499;-74
2022/05/03 11:34:39;;;;;;;13.55;2.78;;;;;;;;;;5075949;28;20134;-74
2022/05/03 11:37:07;;;;;;;11.18;2.60;;;11.90;93.70;;;;;;5058836;28;20048;-74
2022/05/03 11:39:36;;;;;;;16.25;3.30;;;;;;;;;;5075078;28;20419;-74
2022/05/03 11:42:02;;;;;;;16.02;3.03;;;;;;;;;;5058397;28;20426;-74
2022/05/03 11:44:28;;;;;;;19.40;3.13;;;;;;;;;;5109215;28;20039;-74
2022/05/03 11:46:54;;;;;;;12.70;2.60;;;;;;;;;;5075009;28;20124;-74
2022/05/03 11:49:21;;;;;;;15.35;2.90;;;;;;;;;;5058655;28;20044;-73
2022/05/03 11:57:27;;;;;;;9.90;2.78;;;;;;;;;;5074068;28;20056;-74
2022/05/03 11:59:57;;;;;;;15.30;2.70;;;;;;;;;;5074988;28;20124;-73
2022/05/03 12:02:33;;;;;;;11.60;2.60;;;12.50;93.50;;;;;;5074900;28;20123;-70
2022/05/03 12:05:19;;;;;;;14.52;3.10;;;12.60;93.60;;;;;;5074889;28;20033;-70
2022/05/03 12:07:46;;;;;;;12.10;2.88;;;;;;;;;;5074395;28;20084;-73
2022/05/03 12:10:27;;;;;;;22.00;3.28;;;12.70;92.80;;;;;;5058252;28;20044;-70
2022/05/03 12:13:29;;;;;;;11.32;3.30;;;;;;;;;;5074742;28;20373;-70
2022/05/03 12:15:57;;;;;;;15.47;3.87;;;12.90;91.80;;;;;;5036899;28;20056;-70
2022/05/03 12:18:30;;;;;;;13.07;3.63;;;12.90;91.90;;;;;;5067259;28;20071;-70
2022/05/03 12:21:01;;;;;;;11.07;3.13;;;;;;;;;;5074426;28;20048;-70
2022/05/03 12:23:33;;;;;;;16.10;3.80;;;;;;;;;;5057953;28;20385;-70
2022/05/03 12:26:01;;;;;;;9.57;2.90;;;12.70;92.40;;;;;;5057490;28;20110;-70
2022/05/03 12:28:41;;;;;;;15.57;3.75;;;;;;;;;;5074144;28;20078;-72
2022/05/03 12:31:08;;;;;;;12.60;3.30;;;12.30;92.80;;;;;;5074112;28;20480;-70
2022/05/03 12:33:41;;;;;;;19.67;3.03;;;12.60;92.40;;;;;;5074141;28;20123;-70
2022/05/03 12:36:08;;;;;;;15.50;3.67;;;12.50;96.30;;;;;;5073975;28;20045;-70
2022/05/03 12:38:34;;;;;;;18.95;3.80;;;;;;;;;;5073982;28;20040;-70
2022/05/03 12:41:00;;;;;;;13.45;3.05;;;;;;;;;;5073736;28;20036;-71
2022/05/03 12:43:28;;;;;;;11.68;2.72;;;13.00;92.10;;;;;;5074105;28;20127;-70
2022/05/03 12:45:58;;;;;;;15.15;3.08;;;;;;;;;;5074183;28;20049;-70
2022/05/03 12:48:24;;;;;;;15.98;3.47;;;;;;;;;;5073649;28;20040;-70
2022/05/03 12:50:51;;;;;;;16.70;2.95;;;;;;;;;;5073755;28;20044;-70
2022/05/03 12:53:29;;;;;;;16.45;3.20;;;13.70;91.30;;;;;;5073881;28;20056;-70
2022/05/03 12:55:57;;;;;;;15.10;3.22;;;13.70;90.90;;;;;;5073564;28;20565;-71
2022/05/03 12:58:24;;;;;;;18.83;3.30;;;;;;;;;;5073523;28;20399;-71
2022/05/03 13:00:55;;;;;;;11.77;3.15;;;13.30;90.20;;;;;;5073472;28;20480;-71
2022/05/03 13:03:24;;;;;;;16.50;3.67;;;13.40;90.50;;;;;;5073740;28;20040;-69
2022/05/03 13:05:50;;;;;;;19.40;3.83;;;13.50;90.40;;;;;;5107154;28;20044;-70
2022/05/03 13:08:17;;;;;;;20.48;3.72;;;;;;;;;;5072504;28;20041;-71
2022/05/03 13:10:43;;;;;;;16.77;3.67;;;;;;;;;;5073186;28;20047;-72
2022/05/03 13:13:10;;;;;;;12.65;2.97;;;;;;;;;;5056695;28;20098;-73
2022/05/03 13:15:37;;;;;;;13.35;3.05;;;;;;;;;;5073392;28;20048;-74
2022/05/03 13:18:03;;;;;;;17.42;3.10;;;;;;;;;;5057086;28;20044;-74
2022/05/03 13:20:30;;;;;;;13.93;3.15;;;;;;;;;;5056921;28;20496;-74
2022/05/03 13:23:02;;;;;;;16.50;3.25;;;13.80;87.60;;;;;;5073389;28;20167;-74
2022/05/03 13:25:28;;;;;;;12.40;3.13;;;;;;;;;;5074429;28;20082;-74
2022/05/03 13:27:57;;;;;;;18.60;3.53;;;;;;;;;;5073272;28;20060;-74
2022/05/03 13:30:23;;;;;;;20.98;3.67;;;13.70;88.50;;;;;;5056519;28;20148;-73
2022/05/03 13:32:50;;;;;;;14.85;3.67;;;;;;;;;;5072912;28;20083;-74
2022/05/03 13:40:28;;;;;;;14.38;3.97;;;;;;;;;;5072721;28;20044;-74
2022/05/03 13:40:46;;;;;;;12.30;3.25;;;;;;;;;;5058651;28;20115;-74
2022/05/03 13:43:13;;;;;;;14.88;3.63;;;;;;;;;;5074692;28;20571;-74
2022/05/03 13:45:39;;;;;;;14.40;3.47;;;;;;;;;;5039889;28;20048;-74
2022/05/03 13:48:05;;;;;;;16.13;3.63;;;;;;;;;;5056090;28;20045;-74
2022/05/03 13:50:31;;;;;;;19.38;3.85;;;;;;;;;;5072561;28;20044;-74
2022/05/03 13:52:57;;;;;;;17.98;4.22;;;;;;;;;;5072542;28;20044;-74
2022/05/03 13:55:23;;;;;;;17.80;3.38;;;;;;;;;;5072438;28;20064;-74
2022/05/03 13:57:50;;;;;;;19.73;4.32;;;;;;;;;;5055502;28;20509;-73
2022/05/03 14:00:17;;;;;;;27.17;3.97;;;13.20;91.20;;;;;;5072387;28;20068;-73
2022/05/03 14:02:44;;;;;;;14.07;3.20;;;;;;;;;;5072629;28;20080;-74
2022/05/03 14:05:10;;;;;;;20.58;3.17;;;13.00;94.10;;;;;;5055794;28;20040;-74
2022/05/03 14:07:37;;;;;;;16.17;3.40;;;;;;;;;;5055909;28;20119;-74
2022/05/03 14:10:04;;;;;;;18.58;3.60;;;13.00;90.40;;;;;;5073386;28;20412;-74
2022/05/03 14:12:30;;;;;;;13.98;3.55;;;13.00;89.70;;;;;;5072198;28;20051;-74
2022/05/03 14:14:57;;;;;;;23.55;4.13;;;;;;;;;;5055615;28;20114;-74
2022/05/03 14:17:23;;;;;;;16.25;3.53;;;;;;;;;;5055554;28;20040;-74
2022/05/03 14:19:49;;;;;;;14.00;3.40;;;;;;;;;;5071857;28;20065;-74
2022/05/03 14:22:15;;;;;;;15.75;3.55;;;13.50;89.50;;;;;;5071961;28;20072;-74
2022/05/03 14:24:41;;;;;;;11.55;3.30;;;;;;;;;;5071908;28;20370;-74
2022/05/03 14:27:07;;;;;;;16.92;3.60;;;;;;;;;;5071930;28;20101;-74
2022/05/03 14:29:34;;;;;;;15.88;3.50;;;;;;;;;;5055604;28;20044;-75
2022/05/03 14:32:00;;;;;;;20.20;3.22;;;;;;;;;;5072376;28;20123;-74
2022/05/03 14:34:26;;;;;;;13.55;3.20;;;;;;;;;;5071747;28;20044;-73
2022/05/03 14:36:53;;;;;;;12.60;3.40;;;;;;;;;;5071809;28;20072;-74
2022/05/03 14:39:19;;;;;;;18.00;3.90;;;;;;;;;;5071656;28;20389;-73
2022/05/03 14:41:45;;;;;;;15.55;3.45;;;;;;;;;;5071799;28;20059;-74
2022/05/03 14:44:11;;;;;;;17.10;3.88;;;;;;;;;;5071526;28;20127;-73
2022/05/03 14:46:37;;;;;;;27.52;4.05;;;;;;;;;;5072014;28;20066;-74
2022/05/03 14:49:03;;;;;;;14.80;3.88;;;;;;;;;;5055217;28;20045;-73
2022/05/03 14:51:29;;;;;;;17.27;3.70;;;;;;;;;;5054979;28;20538;-74
2022/05/03 14:53:55;;;;;;;17.75;3.75;;;;;;;;;;5071526;28;20123;-74